createdAt,value
2019-04-25T00:02:51.223Z,99.00
2019-04-25T00:07:52.944Z,99.00
2019-04-25T00:12:54.282Z,99.10
2019-04-25T00:17:55.724Z,99.00
2019-04-25T00:23:16.725Z,99.10
2019-04-25T00:28:18.238Z,99.20
2019-04-25T00:33:19.542Z,99.20
2019-04-25T00:38:22.191Z,99.40
2019-04-25T00:43:24.027Z,99.50
2019-04-25T00:48:25.418Z,99.30
2019-04-25T00:53:26.710Z,99.40
2019-04-25T00:58:35.490Z,99.50
2019-04-25T01:03:36.979Z,99.60
2019-04-25T01:08:38.360Z,99.60
2019-04-25T01:13:39.646Z,99.60
2019-04-25T01:18:41.047Z,99.60
2019-04-25T01:23:43.484Z,99.70
2019-04-25T01:28:46.090Z,99.70
2019-04-25T01:33:48.311Z,99.70
2019-04-25T01:38:56.655Z,99.70
2019-04-25T01:43:59.832Z,99.80
2019-04-25T01:49:01.365Z,99.80
2019-04-25T01:54:04.079Z,99.70
2019-04-25T01:59:05.798Z,99.70
2019-04-25T02:04:07.640Z,99.70
2019-04-25T02:09:10.851Z,99.80
2019-04-25T02:14:13.727Z,99.80
2019-04-25T02:19:15.437Z,99.70
2019-04-25T02:24:17.049Z,99.80
2019-04-25T02:29:18.404Z,99.80
2019-04-25T02:34:19.698Z,99.90
2019-04-25T02:39:21.734Z,99.80
2019-04-25T02:44:24.769Z,99.70
2019-04-25T02:49:36.871Z,99.70
2019-04-25T02:54:35.024Z,99.70
2019-04-25T02:59:36.968Z,99.60
2019-04-25T03:04:38.746Z,99.50
2019-04-25T03:09:40.156Z,99.50
2019-04-25T03:14:41.404Z,99.40
2019-04-25T03:19:50.657Z,99.50
2019-04-25T03:24:51.922Z,99.40
2019-04-25T03:29:54.200Z,99.40
2019-04-25T03:34:55.868Z,99.30
2019-04-25T03:39:57.147Z,99.30
2019-04-25T03:44:58.645Z,99.30
2019-04-25T03:50:00.008Z,99.30
2019-04-25T03:55:02.371Z,99.40
2019-04-25T04:00:06.541Z,99.30
2019-04-25T04:05:09.619Z,99.30
2019-04-25T04:10:12.555Z,99.20
2019-04-25T04:15:16.049Z,99.20
2019-04-25T04:20:23.513Z,99.00
2019-04-25T04:25:25.567Z,99.00
2019-04-25T04:30:26.866Z,98.90
2019-04-25T04:35:28.526Z,98.70
2019-04-25T04:40:29.798Z,98.60
2019-04-25T04:45:31.440Z,98.50
2019-04-25T04:50:33.700Z,98.40
2019-04-25T04:55:35.091Z,98.20
2019-04-25T05:00:36.390Z,98.10
2019-04-25T05:05:45.320Z,98.00
2019-04-25T05:10:47.311Z,97.90
2019-04-25T05:15:48.534Z,97.80
2019-04-25T05:20:49.900Z,97.80
2019-04-25T05:25:51.174Z,97.80
2019-04-25T05:30:55.365Z,97.90
2019-04-25T05:35:56.697Z,97.80
2019-04-25T05:41:03.958Z,97.70
2019-04-25T05:46:05.424Z,97.60
2019-04-25T05:51:06.859Z,97.50
2019-04-25T05:56:10.097Z,97.40
2019-04-25T06:01:13.312Z,97.40
2019-04-25T06:06:14.882Z,97.30
2019-04-25T06:11:34.542Z,97.20
2019-04-25T06:16:37.069Z,97.20
2019-04-25T06:21:38.584Z,97.30
2019-04-25T06:26:43.292Z,97.00
2019-04-25T06:31:44.859Z,96.90
2019-04-25T06:36:46.466Z,96.60
2019-04-25T06:41:47.772Z,96.10
2019-04-25T06:46:59.956Z,96.00
2019-04-25T06:52:02.254Z,95.40
2019-04-25T06:57:04.543Z,95.20
2019-04-25T07:02:06.542Z,95.10
2019-04-25T07:07:12.426Z,94.70
2019-04-25T07:12:13.353Z,94.70
2019-04-25T07:17:14.810Z,94.40
2019-04-25T07:22:16.518Z,94.20
2019-04-25T07:27:26.643Z,94.00
2019-04-25T07:32:38.926Z,93.90
2019-04-25T07:37:41.769Z,93.70
2019-04-25T07:42:43.948Z,93.30
2019-04-25T07:47:47.294Z,93.30
2019-04-25T07:52:48.854Z,93.10
2019-04-25T07:57:50.280Z,92.50
2019-04-25T08:02:51.571Z,92.10
2019-04-25T08:07:53.590Z,91.80
2019-04-25T08:12:55.778Z,91.70
2019-04-25T08:17:59.216Z,91.50
2019-04-25T08:23:04.113Z,91.20
2019-04-25T08:28:05.705Z,91.30
2019-04-25T08:33:07.022Z,90.70
2019-04-25T08:38:08.330Z,90.50
2019-04-25T08:43:09.596Z,90.30
2019-04-25T08:48:10.881Z,88.50
2019-04-25T08:53:13.673Z,88.30
2019-04-25T08:58:29.263Z,88.50
2019-04-25T09:03:34.640Z,86.80
2019-04-25T09:08:37.303Z,86.10
2019-04-25T09:13:39.535Z,86.20
2019-04-25T09:18:43.992Z,84.80
2019-04-25T09:23:47.208Z,83.60
2019-04-25T09:28:48.584Z,82.70
2019-04-25T09:33:51.813Z,81.40
2019-04-25T09:38:55.015Z,80.70
2019-04-25T09:43:58.258Z,78.70
2019-04-25T09:49:01.514Z,77.60
2019-04-25T09:54:10.796Z,75.10
2019-04-25T09:59:26.743Z,75.50
2019-04-25T10:04:19.259Z,72.80
2019-04-25T10:09:20.854Z,72.20
2019-04-25T10:14:37.647Z,71.20
2019-04-25T10:19:39.499Z,70.20
2019-04-25T10:24:43.035Z,69.10
2019-04-25T10:29:50.862Z,68.90
2019-04-25T10:34:47.727Z,68.80
2019-04-25T10:39:49.680Z,68.00
2019-04-25T10:44:52.276Z,66.30
2019-04-25T10:49:59.010Z,65.40
2019-04-25T10:55:00.219Z,66.10
2019-04-25T11:00:17.521Z,67.50
2019-04-25T11:05:23.950Z,65.50
2019-04-25T11:10:24.065Z,66.00
2019-04-25T11:15:26.101Z,64.80
2019-04-25T11:20:31.218Z,64.60
2019-04-25T11:25:34.169Z,64.10
2019-04-25T11:30:36.009Z,62.70
2019-04-25T11:35:38.474Z,62.60
2019-04-25T11:40:59.585Z,61.00
2019-04-25T11:46:01.184Z,60.00
2019-04-25T11:51:04.581Z,59.20
2019-04-25T11:56:06.084Z,59.60
2019-04-25T12:01:07.780Z,60.60
2019-04-25T12:06:11.239Z,59.70
2019-04-25T12:11:13.867Z,59.90
2019-04-25T12:16:16.661Z,60.20
2019-04-25T12:21:18.028Z,60.10
2019-04-25T12:26:19.450Z,61.20
2019-04-25T12:31:20.755Z,61.70
2019-04-25T12:36:23.928Z,61.70
2019-04-25T12:41:25.416Z,61.60
2019-04-25T12:46:30.414Z,62.20
2019-04-25T12:51:50.310Z,62.90
2019-04-25T12:56:52.213Z,66.50
2019-04-25T13:01:55.959Z,71.80
2019-04-25T13:06:57.868Z,76.90
2019-04-25T13:12:00.693Z,80.80
2019-04-25T13:17:03.814Z,85.30
2019-04-25T13:22:08.015Z,87.50
2019-04-25T13:27:20.535Z,89.90
2019-04-25T13:32:42.322Z,90.50
2019-04-25T13:37:44.044Z,91.20
2019-04-25T13:42:45.597Z,91.90
2019-04-25T13:47:47.666Z,92.60
2019-04-25T13:52:49.572Z,93.30
2019-04-25T13:57:53.371Z,93.40
2019-04-25T14:02:55.245Z,93.90
2019-04-25T14:07:56.676Z,93.60
2019-04-25T14:12:58.208Z,93.40
2019-04-25T14:18:18.539Z,93.30
2019-04-25T14:23:23.528Z,93.50
2019-04-25T14:28:28.904Z,93.50
2019-04-25T14:33:29.085Z,93.50
2019-04-25T14:38:30.805Z,93.30
2019-04-25T14:43:32.218Z,93.40
2019-04-25T14:48:33.617Z,93.30
2019-04-25T14:53:35.263Z,93.30
2019-04-25T14:58:38.546Z,93.50
2019-04-25T15:03:41.032Z,93.60
2019-04-25T15:08:42.369Z,94.00
2019-04-25T15:13:43.643Z,94.10
2019-04-25T15:18:46.822Z,94.40
2019-04-25T15:23:59.658Z,94.50
2019-04-25T15:28:51.502Z,94.60
2019-04-25T15:33:53.206Z,94.70
2019-04-25T15:38:56.524Z,94.90
2019-04-25T15:44:09.044Z,94.60
2019-04-25T15:49:10.768Z,94.50
2019-04-25T15:54:12.062Z,94.30
2019-04-25T15:59:13.507Z,94.00
2019-04-25T16:04:14.837Z,93.50
2019-04-25T16:09:16.315Z,93.30
2019-04-25T16:14:17.876Z,92.90
2019-04-25T16:19:19.164Z,92.70
2019-04-25T16:24:21.040Z,92.60
2019-04-25T16:29:23.097Z,92.60
2019-04-25T16:34:24.843Z,92.40
2019-04-25T16:39:29.551Z,92.20
2019-04-25T16:44:31.872Z,91.80
2019-04-25T16:49:33.506Z,91.50
2019-04-25T16:54:35.871Z,91.60
2019-04-25T16:59:37.721Z,91.00
2019-04-25T17:04:39.322Z,90.90
2019-04-25T17:09:40.781Z,90.80
2019-04-25T17:15:00.437Z,90.70
2019-04-25T17:20:09.778Z,90.80
2019-04-25T17:25:12.940Z,90.80
2019-04-25T17:30:15.194Z,91.00
2019-04-25T17:35:35.108Z,91.10
2019-04-25T17:40:36.460Z,91.20
2019-04-25T17:45:37.906Z,91.30
2019-04-25T17:50:39.714Z,91.30
2019-04-25T17:55:41.583Z,91.30
2019-04-25T18:00:45.149Z,91.40
2019-04-25T18:05:46.595Z,91.60
2019-04-25T18:10:48.450Z,91.70
2019-04-25T18:16:07.013Z,91.60
2019-04-25T18:21:08.383Z,91.90
2019-04-25T18:26:11.788Z,92.00
2019-04-25T18:31:13.306Z,91.50
2019-04-25T18:36:31.312Z,91.00
2019-04-25T18:41:40.697Z,90.70
2019-04-25T18:46:47.224Z,90.70
2019-04-25T18:51:57.833Z,90.80
2019-04-25T18:56:57.357Z,90.90
2019-04-25T19:02:00.672Z,91.00
2019-04-25T19:07:02.380Z,91.00
2019-04-25T19:12:03.841Z,91.20
2019-04-25T19:17:07.256Z,91.10
2019-04-25T19:22:08.779Z,91.30
2019-04-25T19:27:23.007Z,91.40
2019-04-25T19:32:14.009Z,91.40
2019-04-25T19:37:15.438Z,91.40
2019-04-25T19:42:27.967Z,91.40
2019-04-25T19:47:29.316Z,91.60
2019-04-25T19:52:30.698Z,91.60
2019-04-25T19:57:32.229Z,91.60
2019-04-25T20:02:47.375Z,91.60
2019-04-25T20:07:51.307Z,91.70
2019-04-25T20:12:55.030Z,92.20
2019-04-25T20:17:57.019Z,91.80
2019-04-25T20:23:05.566Z,91.90
2019-04-25T20:28:08.611Z,92.00
2019-04-25T20:33:10.270Z,92.10
2019-04-25T20:38:12.057Z,92.10
2019-04-25T20:43:13.654Z,92.20
2019-04-25T20:48:15.237Z,92.30
2019-04-25T20:53:16.538Z,92.40
2019-04-25T20:58:17.896Z,92.50
2019-04-25T21:03:21.412Z,92.60
2019-04-25T21:08:24.511Z,92.60
2019-04-25T21:13:28.419Z,92.60
2019-04-25T21:18:37.863Z,92.70
2019-04-25T21:23:39.565Z,92.80
2019-04-25T21:28:41.249Z,92.90
2019-04-25T21:33:42.885Z,92.90
2019-04-25T21:38:44.968Z,92.90
2019-04-25T21:43:48.490Z,92.90
2019-04-25T21:48:50.249Z,93.00
2019-04-25T21:53:51.526Z,93.00
2019-04-25T21:58:54.473Z,93.20
2019-04-25T22:03:56.491Z,93.10
2019-04-25T22:08:58.725Z,93.10
2019-04-25T22:14:00.054Z,93.20
2019-04-25T22:19:04.072Z,93.30
2019-04-25T22:24:11.171Z,93.30
2019-04-25T22:29:09.340Z,93.30
2019-04-25T22:34:12.584Z,93.30
2019-04-25T22:39:14.572Z,93.40
2019-04-25T22:44:18.539Z,93.40
2019-04-25T22:49:20.317Z,93.50
2019-04-25T22:54:23.060Z,93.50
2019-04-25T22:59:24.358Z,93.50
2019-04-25T23:04:33.571Z,93.50
2019-04-25T23:09:36.839Z,93.60
2019-04-25T23:14:38.759Z,93.80
2019-04-25T23:19:40.024Z,93.90
2019-04-25T23:24:43.279Z,94.00
2019-04-25T23:29:44.725Z,94.20
2019-04-25T23:34:46.294Z,94.20
2019-04-25T23:39:47.617Z,94.20
2019-04-25T23:44:48.910Z,94.30
2019-04-25T23:49:50.254Z,94.50
2019-04-25T23:54:52.024Z,94.50
2019-04-25T23:59:54.083Z,94.70
